createdAt,value
2023-02-04T00:01:37.412Z,71.90
2023-02-04T00:04:05.567Z,72.13
2023-02-04T00:06:33.358Z,72.17
2023-02-04T00:09:01.148Z,71.84
2023-02-04T00:11:30.254Z,72.02
2023-02-04T00:13:58.001Z,72.09
2023-02-04T00:16:25.811Z,71.60
2023-02-04T00:18:53.679Z,71.51
2023-02-04T00:21:21.451Z,71.76
2023-02-04T00:23:51.134Z,71.72
2023-02-04T00:26:18.911Z,71.96
2023-02-04T00:28:47.979Z,71.49
2023-02-04T00:31:15.799Z,71.35
2023-02-04T00:33:43.940Z,71.82
2023-02-04T00:36:11.682Z,71.57
2023-02-04T00:38:39.414Z,71.23
2023-02-04T00:41:07.630Z,71.92
2023-02-04T00:43:35.355Z,71.59
2023-02-04T00:46:04.519Z,71.32
2023-02-04T00:48:32.298Z,71.36
2023-02-04T00:50:59.984Z,72.03
2023-02-04T00:53:27.695Z,72.08
2023-02-04T00:55:55.460Z,71.80
2023-02-04T00:58:23.240Z,71.62
2023-02-04T01:00:51.021Z,71.71
2023-02-04T01:03:20.349Z,71.48
2023-02-04T01:05:48.070Z,71.45
2023-02-04T01:08:15.858Z,72.07
2023-02-04T01:10:43.589Z,71.53
2023-02-04T01:13:11.634Z,72.00
2023-02-04T01:15:39.372Z,71.35
2023-02-04T01:18:07.115Z,71.99
2023-02-04T01:20:36.204Z,71.72
2023-02-04T01:23:03.943Z,71.64
2023-02-04T01:25:31.661Z,71.81
2023-02-04T01:27:59.462Z,71.83
2023-02-04T01:30:27.375Z,71.86
2023-02-04T01:32:55.096Z,71.35
2023-02-04T01:35:22.966Z,71.39
2023-02-04T01:37:52.057Z,71.64
2023-02-04T01:40:20.327Z,71.72
2023-02-04T01:42:48.313Z,71.29
2023-02-04T01:45:16.086Z,71.82
2023-02-04T01:47:45.189Z,71.62
2023-02-04T01:50:15.709Z,71.51
2023-02-04T01:52:45.388Z,71.83
2023-02-04T01:55:18.109Z,71.71
2023-02-04T01:57:46.206Z,71.85
2023-02-04T02:00:17.843Z,71.82
2023-02-04T02:02:48.140Z,71.90
2023-02-04T02:05:19.041Z,71.44
2023-02-04T02:07:46.889Z,71.63
2023-02-04T02:10:17.071Z,71.95
2023-02-04T02:12:45.356Z,71.72
2023-02-04T02:15:14.578Z,71.34
2023-02-04T02:17:42.821Z,71.48
2023-02-04T02:20:13.100Z,72.18
2023-02-04T02:22:45.641Z,71.68
2023-02-04T02:25:16.187Z,72.04
2023-02-04T02:27:44.649Z,72.01
2023-02-04T02:30:16.691Z,71.51
2023-02-04T02:32:45.617Z,71.44
2023-02-04T02:35:13.526Z,71.20
2023-02-04T02:37:41.327Z,71.43
2023-02-04T02:40:10.502Z,71.78
2023-02-04T02:42:39.876Z,71.53
2023-02-04T02:45:18.270Z,71.41
2023-02-04T02:47:46.106Z,71.44
2023-02-04T02:50:17.900Z,71.95
2023-02-04T02:52:45.787Z,71.63
2023-02-04T02:55:17.220Z,71.28
2023-02-04T02:57:48.315Z,71.37
2023-02-04T03:00:18.667Z,71.52
2023-02-04T03:02:50.814Z,71.10
2023-02-04T03:05:18.609Z,71.77
2023-02-04T03:07:46.407Z,71.63
2023-02-04T03:10:14.222Z,71.45
2023-02-04T03:12:42.012Z,71.82
2023-02-04T03:15:11.660Z,71.46
2023-02-04T03:17:39.490Z,71.08
2023-02-04T03:20:08.385Z,71.48
2023-02-04T03:22:36.453Z,71.43
2023-02-04T03:25:04.520Z,71.22
2023-02-04T03:27:32.492Z,71.08
2023-02-04T03:30:00.259Z,71.07
2023-02-04T03:32:29.334Z,71.29
2023-02-04T03:34:57.049Z,71.16
2023-02-04T03:37:24.764Z,71.17
2023-02-04T03:39:52.542Z,70.55
2023-02-04T03:42:20.291Z,70.91
2023-02-04T03:44:48.017Z,71.22
2023-02-04T03:47:15.809Z,70.72
2023-02-04T03:49:44.905Z,70.83
2023-02-04T03:52:12.668Z,70.96
2023-02-04T03:54:40.397Z,70.73
2023-02-04T03:57:08.109Z,71.01
2023-02-04T03:59:35.860Z,70.92
2023-02-04T04:02:03.632Z,71.03
2023-02-04T04:04:31.446Z,70.46
2023-02-04T04:07:00.585Z,70.90
2023-02-04T04:09:28.494Z,70.77
2023-02-04T04:11:56.482Z,70.02
2023-02-04T04:14:24.215Z,70.20
2023-02-04T04:16:51.982Z,69.91
2023-02-04T04:19:19.758Z,70.32
2023-02-04T04:21:47.538Z,70.16
2023-02-04T04:24:16.630Z,70.39
2023-02-04T04:26:44.370Z,70.63
2023-02-04T04:29:12.156Z,70.65
2023-02-04T04:31:39.976Z,70.00
2023-02-04T04:34:07.799Z,69.89
2023-02-04T04:36:35.544Z,70.09
2023-02-04T04:39:03.268Z,70.47
2023-02-04T04:41:32.327Z,70.66
2023-02-04T04:44:00.029Z,70.38
2023-02-04T04:46:27.790Z,70.51
2023-02-04T04:48:55.566Z,69.88
2023-02-04T04:51:23.362Z,70.38
2023-02-04T04:53:51.145Z,70.39
2023-02-04T04:56:19.201Z,69.93
2023-02-04T04:58:48.341Z,70.67
2023-02-04T05:01:16.146Z,69.97
2023-02-04T05:03:43.928Z,70.10
2023-02-04T05:06:13.067Z,70.41
2023-02-04T05:08:40.831Z,70.37
2023-02-04T05:11:08.605Z,69.97
2023-02-04T05:13:36.332Z,70.46
2023-02-04T05:16:05.995Z,70.00
2023-02-04T05:18:33.754Z,70.22
2023-02-04T05:21:01.768Z,70.50
2023-02-04T05:23:29.468Z,70.38
2023-02-04T05:25:57.458Z,70.41
2023-02-04T05:28:25.207Z,70.05
2023-02-04T05:30:52.943Z,70.50
2023-02-04T05:33:22.040Z,70.34
2023-02-04T05:35:50.036Z,70.61
2023-02-04T05:38:17.788Z,70.32
2023-02-04T05:40:45.537Z,70.49
2023-02-04T05:43:13.257Z,70.82
2023-02-04T05:45:41.010Z,70.54
2023-02-04T05:48:08.778Z,70.21
2023-02-04T05:50:37.937Z,70.29
2023-02-04T05:53:05.712Z,70.29
2023-02-04T05:55:33.463Z,70.45
2023-02-04T05:58:01.263Z,70.98
2023-02-04T06:00:29.062Z,70.34
2023-02-04T06:02:56.899Z,70.37
2023-02-04T06:05:24.657Z,70.29
2023-02-04T06:07:53.825Z,71.10
2023-02-04T06:10:22.081Z,70.89
2023-02-04T06:12:50.092Z,71.17
2023-02-04T06:15:18.114Z,70.16
2023-02-04T06:17:45.798Z,70.86
2023-02-04T06:20:15.864Z,70.17
2023-02-04T06:22:43.588Z,70.42
2023-02-04T06:25:12.687Z,70.80
2023-02-04T06:27:40.467Z,69.96
2023-02-04T06:30:09.389Z,70.49
2023-02-04T06:32:37.256Z,70.77
2023-02-04T06:35:05.286Z,70.63
2023-02-04T06:37:33.043Z,70.70
2023-02-04T06:40:00.853Z,70.29
2023-02-04T06:42:29.895Z,70.37
2023-02-04T06:44:57.678Z,71.10
2023-02-04T06:47:25.409Z,71.01
2023-02-04T06:49:53.155Z,70.27
2023-02-04T06:52:20.892Z,70.15
2023-02-04T06:54:48.688Z,70.45
2023-02-04T06:57:16.399Z,70.38
2023-02-04T06:59:47.034Z,70.73
2023-02-04T07:02:15.516Z,71.39
2023-02-04T07:04:43.807Z,71.31
2023-02-04T07:07:11.614Z,71.58
2023-02-04T07:09:40.618Z,71.29
2023-02-04T07:12:08.699Z,71.19
2023-02-04T07:14:36.487Z,71.20
2023-02-04T07:17:05.638Z,70.41
2023-02-04T07:19:33.824Z,71.05
2023-02-04T07:22:01.596Z,71.21
2023-02-04T07:24:29.351Z,70.30
2023-02-04T07:26:57.106Z,71.17
2023-02-04T07:29:26.046Z,70.92
2023-02-04T07:31:54.120Z,70.83
2023-02-04T07:34:23.393Z,71.30
2023-02-04T07:36:51.499Z,70.61
2023-02-04T07:39:19.316Z,70.80
2023-02-04T07:41:47.144Z,70.87
2023-02-04T07:44:14.970Z,70.86
2023-02-04T07:46:42.872Z,71.46
2023-02-04T07:49:10.638Z,70.63
2023-02-04T07:51:39.769Z,70.05
2023-02-04T07:54:07.448Z,69.97
2023-02-04T07:56:35.240Z,69.62
2023-02-04T07:59:03.076Z,69.10
2023-02-04T08:01:30.857Z,68.65
2023-02-04T08:03:58.647Z,68.14
2023-02-04T08:06:26.492Z,67.90
2023-02-04T08:08:55.578Z,66.91
2023-02-04T08:11:23.259Z,66.64
2023-02-04T08:13:50.955Z,66.74
2023-02-04T08:16:18.739Z,67.50
2023-02-04T08:18:46.459Z,67.42
2023-02-04T08:21:14.193Z,68.14
2023-02-04T08:23:42.317Z,68.18
2023-02-04T08:26:12.860Z,68.68
2023-02-04T08:28:40.605Z,69.04
2023-02-04T08:31:11.860Z,69.16
2023-02-04T08:33:40.053Z,69.40
2023-02-04T08:36:08.677Z,69.91
2023-02-04T08:38:36.587Z,70.29
2023-02-04T08:41:04.564Z,69.70
2023-02-04T08:43:33.630Z,70.54
2023-02-04T08:46:01.396Z,70.45
2023-02-04T08:48:29.300Z,70.76
2023-02-04T08:50:57.123Z,71.07
2023-02-04T08:53:24.913Z,72.09
2023-02-04T08:55:52.671Z,73.10
2023-02-04T08:58:20.391Z,72.44
2023-02-04T09:00:49.666Z,72.04
2023-02-04T09:03:17.397Z,72.27
2023-02-04T09:05:45.066Z,71.96
2023-02-04T09:08:12.833Z,71.59
2023-02-04T09:10:40.800Z,72.57
2023-02-04T09:13:11.690Z,72.15
2023-02-04T09:15:39.492Z,72.74
2023-02-04T09:18:16.373Z,71.99
2023-02-04T09:20:44.139Z,72.25
2023-02-04T09:23:12.936Z,72.01
2023-02-04T09:25:41.213Z,72.51
2023-02-04T09:28:11.553Z,72.71
2023-02-04T09:30:39.929Z,72.67
2023-02-04T09:33:09.840Z,72.49
2023-02-04T09:35:37.658Z,72.69
2023-02-04T09:38:05.482Z,72.43
2023-02-04T09:40:36.414Z,72.84
2023-02-04T09:43:06.667Z,72.39
2023-02-04T09:45:36.991Z,72.87
2023-02-04T09:48:08.545Z,73.28
2023-02-04T09:50:38.738Z,72.73
2023-02-04T09:53:08.429Z,73.32
2023-02-04T09:55:39.073Z,73.01
2023-02-04T09:58:13.346Z,73.26
2023-02-04T10:00:41.111Z,73.24
2023-02-04T10:03:15.901Z,73.11
2023-02-04T10:05:45.671Z,73.35
2023-02-04T10:08:16.334Z,72.75
2023-02-04T10:10:45.086Z,73.53
2023-02-04T10:13:19.431Z,72.97
2023-02-04T10:15:49.022Z,73.38
2023-02-04T10:18:23.449Z,72.82
2023-02-04T10:20:54.030Z,73.38
2023-02-04T10:23:22.119Z,72.75
2023-02-04T10:25:49.869Z,72.68
2023-02-04T10:28:18.412Z,71.59
2023-02-04T10:30:47.218Z,71.55
2023-02-04T10:33:16.818Z,70.41
2023-02-04T10:35:49.170Z,69.23
2023-02-04T10:38:18.290Z,69.13
2023-02-04T10:40:47.224Z,69.19
2023-02-04T10:43:23.780Z,69.23
2023-02-04T10:45:59.069Z,69.46
2023-02-04T10:48:27.945Z,70.09
2023-02-04T10:50:57.548Z,69.86
2023-02-04T10:53:45.223Z,70.56
2023-02-04T10:56:17.731Z,70.77
2023-02-04T10:58:45.750Z,70.74
2023-02-04T11:01:16.013Z,70.39
2023-02-04T11:03:47.095Z,70.89
2023-02-04T11:06:21.379Z,71.21
2023-02-04T11:08:53.539Z,71.44
2023-02-04T11:11:24.388Z,71.21
2023-02-04T11:14:04.251Z,70.82
2023-02-04T11:16:35.517Z,71.37
2023-02-04T11:19:05.594Z,70.91
2023-02-04T11:21:44.603Z,71.04
2023-02-04T11:24:26.404Z,70.75
2023-02-04T11:27:07.515Z,71.29
2023-02-04T11:29:38.480Z,71.36
2023-02-04T11:32:11.390Z,71.06
2023-02-04T11:34:48.658Z,70.94
2023-02-04T11:37:35.551Z,70.97
2023-02-04T11:40:21.427Z,70.95
2023-02-04T11:42:49.570Z,70.47
2023-02-04T11:45:21.127Z,70.54
2023-02-04T11:47:49.485Z,70.97
2023-02-04T11:50:22.704Z,71.11
2023-02-04T11:52:50.498Z,71.13
2023-02-04T11:55:20.190Z,70.92
2023-02-04T11:57:52.999Z,71.03
2023-02-04T12:00:22.929Z,69.90
2023-02-04T12:02:56.170Z,70.13
2023-02-04T12:05:37.533Z,69.95
2023-02-04T12:08:13.603Z,69.99
2023-02-04T12:10:50.158Z,69.53
2023-02-04T12:13:20.122Z,69.75
2023-02-04T12:15:56.676Z,69.63
2023-02-04T12:18:24.413Z,69.23
2023-02-04T12:20:52.112Z,69.50
2023-02-04T12:23:19.963Z,70.18
2023-02-04T12:25:49.247Z,69.29
2023-02-04T12:28:17.278Z,69.31
2023-02-04T12:30:45.210Z,69.72
2023-02-04T12:33:14.920Z,68.91
2023-02-04T12:35:42.956Z,69.04
2023-02-04T12:38:11.046Z,69.46
2023-02-04T12:40:38.972Z,68.66
2023-02-04T12:43:08.152Z,68.04
2023-02-04T12:45:35.929Z,68.21
2023-02-04T12:48:03.682Z,68.30
2023-02-04T12:50:31.666Z,68.58
2023-02-04T12:53:00.836Z,68.66
2023-02-04T12:55:30.413Z,68.71
2023-02-04T12:57:58.402Z,69.31
2023-02-04T13:00:27.794Z,68.87
2023-02-04T13:02:56.045Z,68.66
2023-02-04T13:05:23.761Z,68.93
2023-02-04T13:07:51.612Z,68.56
2023-02-04T13:10:20.157Z,68.82
2023-02-04T13:12:47.958Z,68.84
2023-02-04T13:15:15.728Z,68.41
2023-02-04T13:17:44.810Z,68.61
2023-02-04T13:20:13.739Z,68.53
2023-02-04T13:22:44.277Z,68.27
2023-02-04T13:25:12.600Z,67.84
2023-02-04T13:27:40.924Z,68.28
2023-02-04T13:30:10.307Z,68.24
2023-02-04T13:32:38.092Z,68.16
2023-02-04T13:35:08.019Z,68.47
2023-02-04T13:37:36.014Z,68.02
2023-02-04T13:40:03.758Z,67.88
2023-02-04T13:42:31.483Z,67.96
2023-02-04T13:44:59.236Z,68.44
2023-02-04T13:47:27.561Z,68.70
2023-02-04T13:49:55.306Z,68.88
2023-02-04T13:52:24.393Z,69.00
2023-02-04T13:54:52.127Z,68.88
2023-02-04T13:57:21.181Z,68.78
2023-02-04T13:59:48.894Z,69.16
2023-02-04T14:02:16.949Z,69.24
2023-02-04T14:04:44.708Z,69.16
2023-02-04T14:07:13.743Z,68.57
2023-02-04T14:09:42.901Z,68.73
2023-02-04T14:12:10.806Z,68.49
2023-02-04T14:14:38.509Z,68.54
2023-02-04T14:17:06.674Z,68.51
2023-02-04T14:19:34.485Z,68.37
2023-02-04T14:22:02.804Z,68.80
2023-02-04T14:24:30.611Z,68.61
2023-02-04T14:27:01.230Z,68.34
2023-02-04T14:29:28.970Z,68.73
2023-02-04T14:31:56.762Z,68.47
2023-02-04T14:34:24.566Z,68.09
2023-02-04T14:36:52.274Z,67.79
2023-02-04T14:39:20.084Z,68.36
2023-02-04T14:41:47.771Z,68.55
2023-02-04T14:44:20.676Z,68.47
2023-02-04T14:46:49.749Z,68.72
2023-02-04T14:49:17.730Z,68.82
2023-02-04T14:51:45.638Z,68.08
2023-02-04T14:54:13.661Z,67.79
2023-02-04T14:56:41.416Z,67.08
2023-02-04T14:59:09.143Z,66.29
2023-02-04T15:01:38.235Z,65.88
2023-02-04T15:04:06.004Z,66.33
2023-02-04T15:06:33.776Z,66.50
2023-02-04T15:09:01.509Z,66.84
2023-02-04T15:11:29.235Z,67.17
2023-02-04T15:13:56.948Z,67.46
2023-02-04T15:16:24.695Z,67.67
2023-02-04T15:18:53.994Z,67.71
2023-02-04T15:21:21.935Z,67.58
2023-02-04T15:23:49.609Z,67.77
2023-02-04T15:26:17.358Z,67.89
2023-02-04T15:28:45.122Z,68.25
2023-02-04T15:31:13.260Z,68.46
2023-02-04T15:33:41.145Z,68.75
2023-02-04T15:36:10.666Z,68.65
2023-02-04T15:38:38.458Z,68.89
2023-02-04T15:41:06.416Z,69.15
2023-02-04T15:43:35.854Z,69.47
2023-02-04T15:46:03.668Z,69.38
2023-02-04T15:48:31.424Z,69.40
2023-02-04T15:50:59.573Z,69.24
2023-02-04T15:53:28.763Z,69.66
2023-02-04T15:55:56.561Z,69.61
2023-02-04T15:58:24.304Z,69.76
2023-02-04T16:00:52.098Z,69.76
2023-02-04T16:03:19.855Z,69.79
2023-02-04T16:05:47.624Z,69.87
2023-02-04T16:08:21.936Z,69.60
2023-02-04T16:10:51.089Z,69.65
2023-02-04T16:13:18.879Z,70.17
2023-02-04T16:15:46.731Z,69.80
2023-02-04T16:18:14.506Z,70.03
2023-02-04T16:20:42.257Z,70.01
2023-02-04T16:23:10.063Z,70.01
2023-02-04T16:25:37.833Z,70.09
2023-02-04T16:28:07.036Z,70.04
2023-02-04T16:30:34.809Z,70.29
2023-02-04T16:33:02.537Z,70.31
2023-02-04T16:35:30.542Z,69.86
2023-02-04T16:37:58.343Z,70.33
2023-02-04T16:40:26.060Z,70.05
2023-02-04T16:42:54.247Z,70.66
2023-02-04T16:45:24.302Z,70.71
2023-02-04T16:47:52.089Z,70.52
2023-02-04T16:50:22.058Z,70.72
2023-02-04T16:52:49.803Z,70.68
2023-02-04T16:55:17.803Z,70.73
2023-02-04T16:57:45.616Z,70.47
2023-02-04T17:00:14.697Z,70.75
2023-02-04T17:02:43.915Z,71.36
2023-02-04T17:05:11.777Z,71.13
2023-02-04T17:07:39.672Z,71.24
2023-02-04T17:10:08.005Z,71.56
2023-02-04T17:12:35.816Z,71.61
2023-02-04T17:15:03.596Z,71.62
2023-02-04T17:17:31.422Z,71.58
2023-02-04T17:20:01.085Z,71.96
2023-02-04T17:22:28.830Z,71.71
2023-02-04T17:24:56.540Z,71.80
2023-02-04T17:27:24.263Z,72.21
2023-02-04T17:29:52.011Z,71.78
2023-02-04T17:32:19.742Z,71.84
2023-02-04T17:34:47.473Z,72.23
2023-02-04T17:37:16.573Z,72.35
2023-02-04T17:39:44.491Z,72.10
2023-02-04T17:42:12.200Z,72.40
2023-02-04T17:44:40.037Z,72.14
2023-02-04T17:47:08.408Z,72.08
2023-02-04T17:49:36.516Z,72.03
2023-02-04T17:52:04.448Z,72.11
2023-02-04T17:54:34.179Z,72.33
2023-02-04T17:57:12.625Z,72.46
2023-02-04T17:59:41.074Z,72.58
2023-02-04T18:02:21.969Z,72.71
2023-02-04T18:04:49.926Z,72.38
2023-02-04T18:07:17.696Z,72.24
2023-02-04T18:09:46.826Z,71.98
2023-02-04T18:12:16.293Z,71.34
2023-02-04T18:14:44.780Z,70.71
2023-02-04T18:17:14.559Z,70.11
2023-02-04T18:19:45.127Z,69.64
2023-02-04T18:22:14.893Z,69.18
2023-02-04T18:24:45.056Z,69.09
2023-02-04T18:27:21.128Z,69.29
2023-02-04T18:29:51.891Z,69.59
2023-02-04T18:32:22.273Z,69.92
2023-02-04T18:34:52.197Z,70.21
2023-02-04T18:37:30.346Z,70.49
2023-02-04T18:40:24.616Z,70.63
2023-02-04T18:43:02.576Z,71.11
2023-02-04T18:45:32.477Z,71.31
2023-02-04T18:48:02.195Z,71.45
2023-02-04T18:50:32.643Z,71.49
2023-02-04T18:53:02.334Z,71.63
2023-02-04T18:55:34.834Z,71.57
2023-02-04T18:58:28.264Z,71.67
2023-02-04T19:01:00.519Z,71.67
2023-02-04T19:03:30.427Z,71.67
2023-02-04T19:06:00.548Z,71.61
2023-02-04T19:08:30.297Z,71.93
2023-02-04T19:11:00.904Z,72.33
2023-02-04T19:13:40.953Z,72.20
2023-02-04T19:16:21.485Z,71.79
2023-02-04T19:18:50.079Z,71.67
2023-02-04T19:21:27.296Z,71.85
2023-02-04T19:23:59.790Z,71.56
2023-02-04T19:26:35.044Z,72.06
2023-02-04T19:29:37.573Z,71.82
2023-02-04T19:32:24.926Z,71.96
2023-02-04T19:34:53.201Z,71.30
2023-02-04T19:37:26.591Z,70.59
2023-02-04T19:39:55.883Z,70.03
2023-02-04T19:42:29.827Z,69.23
2023-02-04T19:45:01.768Z,68.63
2023-02-04T19:47:35.280Z,68.68
2023-02-04T19:50:21.590Z,68.66
2023-02-04T19:52:52.225Z,69.24
2023-02-04T19:55:34.832Z,69.47
2023-02-04T19:58:14.788Z,69.85
2023-02-04T20:00:53.159Z,70.23
2023-02-04T20:03:28.663Z,70.51
2023-02-04T20:06:01.897Z,70.58
2023-02-04T20:08:46.273Z,70.83
2023-02-04T20:11:50.018Z,70.92
2023-02-04T20:14:42.603Z,71.01
2023-02-04T20:17:22.237Z,71.26
2023-02-04T20:19:50.911Z,71.34
2023-02-04T20:22:43.990Z,71.40
2023-02-04T20:25:43.655Z,71.36
2023-02-04T20:28:20.265Z,71.58
2023-02-04T20:30:50.670Z,71.62
2023-02-04T20:33:29.295Z,71.68
2023-02-04T20:36:42.526Z,71.92
2023-02-04T20:39:43.645Z,72.09
2023-02-04T20:42:35.241Z,71.94
2023-02-04T20:45:25.434Z,72.37
2023-02-04T20:47:57.421Z,72.11
2023-02-04T20:50:38.202Z,72.42
2023-02-04T20:53:09.708Z,71.71
2023-02-04T20:55:37.550Z,72.10
2023-02-04T20:58:16.636Z,72.34
2023-02-04T21:00:47.889Z,72.61
2023-02-04T21:03:25.358Z,72.19
2023-02-04T21:05:55.706Z,72.60
2023-02-04T21:08:33.352Z,72.31
2023-02-04T21:11:01.866Z,72.49
2023-02-04T21:13:29.644Z,72.55
2023-02-04T21:15:57.681Z,72.51
2023-02-04T21:18:26.024Z,72.51
2023-02-04T21:20:55.135Z,72.54
2023-02-04T21:23:22.969Z,72.80
2023-02-04T21:25:50.706Z,72.97
2023-02-04T21:28:18.629Z,73.01
2023-02-04T21:30:46.455Z,72.67
2023-02-04T21:33:16.694Z,72.67
2023-02-04T21:35:44.840Z,72.52
2023-02-04T21:38:13.976Z,72.98
2023-02-04T21:40:42.115Z,72.65
2023-02-04T21:43:11.158Z,72.93
2023-02-04T21:45:39.856Z,72.70
2023-02-04T21:48:08.822Z,72.91
2023-02-04T21:50:38.404Z,72.75
2023-02-04T21:53:06.866Z,73.08
2023-02-04T21:55:36.666Z,73.16
2023-02-04T21:58:04.895Z,72.74
2023-02-04T22:00:33.098Z,72.57
2023-02-04T22:03:01.015Z,72.55
2023-02-04T22:05:28.807Z,72.82
2023-02-04T22:07:58.393Z,72.68
2023-02-04T22:10:27.431Z,72.90
2023-02-04T22:12:56.597Z,72.94
2023-02-04T22:15:24.954Z,72.60
2023-02-04T22:17:55.261Z,72.90
2023-02-04T22:20:25.231Z,72.76
2023-02-04T22:22:53.354Z,72.71
2023-02-04T22:25:22.440Z,72.38
2023-02-04T22:27:50.651Z,72.77
2023-02-04T22:30:20.753Z,72.84
2023-02-04T22:32:48.545Z,72.71
2023-02-04T22:35:16.680Z,72.83
2023-02-04T22:37:44.701Z,72.50
2023-02-04T22:40:13.574Z,72.56
2023-02-04T22:42:41.800Z,72.64
2023-02-04T22:45:11.302Z,73.03
2023-02-04T22:47:40.483Z,72.57
2023-02-04T22:50:08.945Z,72.88
2023-02-04T22:52:36.747Z,72.48
2023-02-04T22:55:04.916Z,72.69
2023-02-04T22:57:32.684Z,72.89
2023-02-04T23:00:00.445Z,72.78
2023-02-04T23:02:28.212Z,72.84
2023-02-04T23:04:57.313Z,72.88
2023-02-04T23:07:25.027Z,72.82
2023-02-04T23:09:52.810Z,73.11
2023-02-04T23:12:20.508Z,72.78
2023-02-04T23:14:49.606Z,72.96
2023-02-04T23:17:18.865Z,73.28
2023-02-04T23:19:46.744Z,72.44
2023-02-04T23:22:16.973Z,72.78
2023-02-04T23:24:45.089Z,73.15
2023-02-04T23:27:13.216Z,72.68
2023-02-04T23:29:41.407Z,73.19
2023-02-04T23:32:09.765Z,72.77
2023-02-04T23:34:37.524Z,72.80
2023-02-04T23:37:05.290Z,73.07
2023-02-04T23:39:34.403Z,73.00
2023-02-04T23:42:02.185Z,72.91
2023-02-04T23:44:29.926Z,72.78
2023-02-04T23:46:57.706Z,73.23
2023-02-04T23:49:25.409Z,73.13
2023-02-04T23:51:53.149Z,72.65
2023-02-04T23:54:20.943Z,72.95
2023-02-04T23:56:50.060Z,72.81
2023-02-04T23:59:17.817Z,72.89
